createdAt,value
2023-04-10T00:00:57.400Z,57.67
2023-04-10T00:03:28.125Z,50.77
2023-04-10T00:05:57.597Z,58.50
2023-04-10T00:08:27.009Z,42.03
2023-04-10T00:10:56.215Z,58.93
2023-04-10T00:13:24.969Z,48.77
2023-04-10T00:15:53.667Z,45.30
2023-04-10T00:18:22.264Z,46.93
2023-04-10T00:20:52.223Z,47.87
2023-04-10T00:23:20.840Z,50.77
2023-04-10T00:25:49.888Z,49.93
2023-04-10T00:28:18.430Z,45.33
2023-04-10T00:30:47.053Z,50.10
2023-04-10T00:33:15.856Z,51.57
2023-04-10T00:35:44.450Z,48.60
2023-04-10T00:38:14.503Z,52.97
2023-04-10T00:40:43.095Z,48.93
2023-04-10T00:43:12.144Z,40.33
2023-04-10T00:45:41.194Z,45.63
2023-04-10T00:48:09.911Z,53.53
2023-04-10T00:50:38.548Z,44.43
2023-04-10T00:53:07.211Z,52.03
2023-04-10T00:55:37.572Z,46.13
2023-04-10T00:58:06.924Z,60.73
2023-04-10T01:00:35.638Z,43.47
2023-04-10T01:03:05.061Z,51.27
2023-04-10T01:05:40.597Z,49.60
2023-04-10T01:08:19.195Z,52.93
2023-04-10T01:10:53.073Z,41.13
2023-04-10T01:13:26.046Z,43.67
2023-04-10T01:16:02.806Z,52.17
2023-04-10T01:18:38.453Z,41.07
2023-04-10T01:21:09.402Z,49.00
2023-04-10T01:23:55.810Z,46.07
2023-04-10T01:26:41.252Z,43.17
2023-04-10T01:29:16.036Z,35.80
2023-04-10T01:31:52.778Z,48.43
2023-04-10T01:34:25.168Z,43.97
2023-04-10T01:36:58.418Z,55.03
2023-04-10T01:39:29.261Z,46.83
2023-04-10T01:41:59.983Z,52.00
2023-04-10T01:44:32.957Z,41.03
2023-04-10T01:47:02.400Z,53.07
2023-04-10T01:49:32.680Z,48.60
2023-04-10T01:52:01.886Z,53.57
2023-04-10T01:54:33.808Z,42.70
2023-04-10T01:57:04.009Z,42.07
2023-04-10T01:59:34.286Z,41.70
2023-04-10T02:02:03.228Z,50.87
2023-04-10T02:04:32.068Z,41.80
2023-04-10T02:07:05.680Z,49.80
2023-04-10T02:09:46.940Z,43.50
2023-04-10T02:12:19.978Z,46.20
2023-04-10T02:14:51.533Z,46.43
2023-04-10T02:17:24.506Z,40.77
2023-04-10T02:19:55.670Z,45.17
2023-04-10T02:22:26.743Z,36.50
2023-04-10T02:24:55.930Z,46.33
2023-04-10T02:27:31.446Z,43.93
2023-04-10T02:30:02.566Z,43.83
2023-04-10T02:32:31.774Z,39.07
2023-04-10T02:35:01.808Z,50.37
2023-04-10T02:37:30.696Z,37.73
2023-04-10T02:39:59.271Z,42.87
2023-04-10T02:42:27.870Z,36.83
2023-04-10T02:44:57.239Z,46.63
2023-04-10T02:47:27.270Z,31.47
2023-04-10T02:49:56.053Z,55.73
2023-04-10T02:52:24.636Z,38.50
2023-04-10T02:54:53.246Z,35.53
2023-04-10T02:57:22.697Z,40.30
2023-04-10T02:59:52.081Z,32.53
2023-04-10T03:02:20.811Z,38.73
2023-04-10T03:04:51.019Z,35.53
2023-04-10T03:07:19.675Z,30.63
2023-04-10T03:09:48.288Z,31.07
2023-04-10T03:12:16.986Z,31.33
2023-04-10T03:14:45.715Z,38.27
2023-04-10T03:17:14.660Z,39.97
2023-04-10T03:19:43.320Z,30.43
2023-04-10T03:22:13.294Z,36.33
2023-04-10T03:24:42.122Z,31.73
2023-04-10T03:27:10.858Z,30.20
2023-04-10T03:29:39.491Z,29.63
2023-04-10T03:32:08.310Z,32.17
2023-04-10T03:34:37.355Z,31.73
2023-04-10T03:37:06.467Z,33.50
2023-04-10T03:39:37.338Z,37.97
2023-04-10T03:42:06.042Z,34.33
2023-04-10T03:44:35.827Z,24.03
2023-04-10T03:47:04.460Z,44.53
2023-04-10T03:49:33.272Z,30.70
2023-04-10T03:52:01.887Z,38.83
2023-04-10T03:54:30.489Z,36.33
2023-04-10T03:57:01.558Z,42.77
2023-04-10T03:59:38.177Z,30.77
2023-04-10T04:02:08.569Z,35.93
2023-04-10T04:04:37.734Z,35.60
2023-04-10T04:07:06.546Z,44.47
2023-04-10T04:09:35.525Z,45.07
2023-04-10T04:12:05.586Z,45.07
2023-04-10T04:14:34.255Z,32.33
2023-04-10T04:17:03.094Z,36.97
2023-04-10T04:19:31.814Z,22.63
2023-04-10T04:22:00.543Z,38.80
2023-04-10T04:24:29.202Z,33.10
2023-04-10T04:26:57.843Z,30.90
2023-04-10T04:29:27.915Z,39.13
2023-04-10T04:31:56.557Z,30.10
2023-04-10T04:34:25.340Z,34.20
2023-04-10T04:36:53.961Z,37.20
2023-04-10T04:39:23.244Z,50.67
2023-04-10T04:41:51.874Z,34.03
2023-04-10T04:44:20.792Z,32.57
2023-04-10T04:46:50.787Z,31.80
2023-04-10T04:49:19.404Z,36.93
2023-04-10T04:51:48.103Z,33.50
2023-04-10T04:54:16.701Z,35.13
2023-04-10T04:56:45.370Z,32.43
2023-04-10T04:59:14.013Z,47.30
2023-04-10T05:01:42.668Z,32.83
2023-04-10T05:04:12.792Z,30.57
2023-04-10T05:06:41.570Z,35.70
2023-04-10T05:09:10.121Z,25.83
2023-04-10T05:11:38.929Z,40.73
2023-04-10T05:14:09.666Z,37.63
2023-04-10T05:16:38.457Z,29.07
2023-04-10T05:19:07.035Z,38.13
2023-04-10T05:21:38.200Z,29.73
2023-04-10T05:24:07.009Z,33.67
2023-04-10T05:26:35.604Z,26.43
2023-04-10T05:29:04.232Z,40.47
2023-04-10T05:31:32.859Z,28.87
2023-04-10T05:34:01.530Z,30.33
2023-04-10T05:36:30.172Z,32.10
2023-04-10T05:39:00.275Z,30.77
2023-04-10T05:41:29.012Z,33.80
2023-04-10T05:43:57.976Z,26.63
2023-04-10T05:46:26.653Z,31.53
2023-04-10T05:48:55.654Z,39.77
2023-04-10T05:51:24.556Z,35.13
2023-04-10T05:53:53.445Z,31.60
2023-04-10T05:56:23.514Z,29.73
2023-04-10T05:58:52.432Z,32.40
2023-04-10T06:01:21.123Z,26.17
2023-04-10T06:03:49.877Z,36.13
2023-04-10T06:06:18.923Z,21.93
2023-04-10T06:08:47.546Z,33.97
2023-04-10T06:11:16.316Z,36.17
2023-04-10T06:13:46.529Z,33.27
2023-04-10T06:16:16.627Z,36.00
2023-04-10T06:18:45.474Z,29.07
2023-04-10T06:21:14.654Z,53.13
2023-04-10T06:23:43.250Z,27.17
2023-04-10T06:26:11.925Z,40.43
2023-04-10T06:28:40.558Z,29.30
2023-04-10T06:31:10.663Z,41.10
2023-04-10T06:33:39.250Z,31.63
2023-04-10T06:36:08.979Z,38.50
2023-04-10T06:38:40.694Z,32.23
2023-04-10T06:41:09.355Z,31.07
2023-04-10T06:43:40.455Z,30.70
2023-04-10T06:46:10.535Z,35.10
2023-04-10T06:48:39.490Z,30.43
2023-04-10T06:51:09.082Z,37.70
2023-04-10T06:53:37.892Z,26.00
2023-04-10T06:56:08.243Z,32.27
2023-04-10T06:58:36.902Z,29.13
2023-04-10T07:01:05.861Z,39.27
2023-04-10T07:03:35.974Z,29.97
2023-04-10T07:06:07.674Z,35.20
2023-04-10T07:08:36.505Z,27.53
2023-04-10T07:11:07.066Z,37.67
2023-04-10T07:13:38.953Z,31.13
2023-04-10T07:16:09.812Z,29.10
2023-04-10T07:18:41.325Z,24.50
2023-04-10T07:21:12.972Z,43.03
2023-04-10T07:23:42.331Z,52.93
2023-04-10T07:26:11.119Z,45.83
2023-04-10T07:28:39.731Z,28.17
2023-04-10T07:31:09.129Z,35.07
2023-04-10T07:33:39.609Z,28.57
2023-04-10T07:36:09.401Z,42.60
2023-04-10T07:38:41.086Z,25.00
2023-04-10T07:41:10.576Z,35.53
2023-04-10T07:43:39.109Z,27.57
2023-04-10T07:46:09.581Z,35.50
2023-04-10T07:48:39.702Z,29.83
2023-04-10T07:51:09.924Z,24.53
2023-04-10T07:53:38.566Z,26.33
2023-04-10T07:56:08.423Z,34.53
2023-04-10T07:58:37.315Z,23.60
2023-04-10T08:01:06.629Z,25.47
2023-04-10T08:03:41.775Z,26.33
2023-04-10T08:06:11.343Z,35.17
2023-04-10T08:08:41.003Z,22.57
2023-04-10T08:11:24.740Z,34.27
2023-04-10T08:13:53.818Z,24.87
2023-04-10T08:16:25.780Z,24.73
2023-04-10T08:18:57.736Z,23.43
2023-04-10T08:21:27.990Z,25.53
2023-04-10T08:23:58.552Z,23.13
2023-04-10T08:26:28.253Z,25.60
2023-04-10T08:28:58.992Z,26.20
2023-04-10T08:31:28.674Z,25.50
2023-04-10T08:33:59.606Z,30.97
2023-04-10T08:36:28.934Z,20.30
2023-04-10T08:38:57.645Z,23.63
2023-04-10T08:41:26.585Z,17.23
2023-04-10T08:43:55.584Z,20.27
2023-04-10T08:46:26.131Z,21.60
2023-04-10T08:49:00.077Z,22.97
2023-04-10T08:51:34.791Z,18.20
2023-04-10T08:54:07.971Z,28.97
2023-04-10T08:56:38.938Z,17.77
2023-04-10T08:59:08.990Z,30.20
2023-04-10T09:01:38.387Z,19.50
2023-04-10T09:04:07.884Z,29.90
2023-04-10T09:06:38.167Z,18.93
2023-04-10T09:09:07.237Z,26.00
2023-04-10T09:12:04.473Z,22.80
2023-04-10T09:14:34.640Z,19.90
2023-04-10T09:17:14.730Z,31.23
2023-04-10T09:19:44.493Z,20.23
2023-04-10T09:22:14.957Z,28.63
2023-04-10T09:24:45.249Z,20.83
2023-04-10T09:27:29.268Z,26.23
2023-04-10T09:29:58.177Z,20.40
2023-04-10T09:32:41.272Z,20.63
2023-04-10T09:35:10.875Z,28.50
2023-04-10T09:37:42.462Z,20.33
2023-04-10T09:40:22.061Z,28.20
2023-04-10T09:42:50.812Z,22.33
2023-04-10T09:45:20.593Z,26.77
2023-04-10T09:48:04.370Z,24.30
2023-04-10T09:50:39.581Z,19.57
2023-04-10T09:53:11.258Z,24.30
2023-04-10T09:55:40.626Z,20.47
2023-04-10T09:58:09.905Z,31.20
2023-04-10T10:00:42.124Z,19.83
2023-04-10T10:03:13.073Z,26.00
2023-04-10T10:05:44.428Z,18.93
2023-04-10T10:08:16.706Z,29.67
2023-04-10T10:10:49.279Z,20.57
2023-04-10T10:13:23.937Z,26.87
2023-04-10T10:15:59.454Z,20.67
2023-04-10T10:18:37.874Z,24.60
2023-04-10T10:21:09.001Z,18.77
2023-04-10T10:23:39.669Z,19.43
2023-04-10T10:26:10.987Z,23.13
2023-04-10T10:28:41.342Z,19.33
2023-04-10T10:31:10.071Z,25.40
2023-04-10T10:33:39.622Z,21.37
2023-04-10T10:36:10.927Z,27.57
2023-04-10T10:38:46.343Z,20.90
2023-04-10T10:41:22.435Z,27.40
2023-04-10T10:43:57.497Z,21.07
2023-04-10T10:46:35.432Z,20.77
2023-04-10T10:49:04.212Z,25.70
2023-04-10T10:51:44.690Z,19.07
2023-04-10T10:54:36.613Z,27.43
2023-04-10T10:57:45.845Z,25.80
2023-04-10T11:00:15.965Z,25.40
2023-04-10T11:02:44.830Z,19.93
2023-04-10T11:05:49.182Z,26.57
2023-04-10T11:08:17.897Z,25.33
2023-04-10T11:11:05.338Z,21.07
2023-04-10T11:13:35.519Z,19.33
2023-04-10T11:16:06.740Z,20.33
2023-04-10T11:19:13.334Z,20.37
2023-04-10T11:22:02.653Z,21.23
2023-04-10T11:24:31.988Z,20.60
2023-04-10T11:27:01.992Z,20.60
2023-04-10T11:29:36.864Z,20.90
2023-04-10T11:32:06.534Z,23.10
2023-04-10T11:34:35.576Z,22.17
2023-04-10T11:37:04.263Z,20.37
2023-04-10T11:39:32.937Z,21.80
2023-04-10T11:42:02.950Z,24.17
2023-04-10T11:44:32.898Z,21.87
2023-04-10T11:47:01.685Z,22.47
2023-04-10T11:49:32.889Z,20.03
2023-04-10T11:52:01.842Z,23.10
2023-04-10T11:54:31.353Z,21.77
2023-04-10T11:57:03.628Z,22.83
2023-04-10T11:59:33.504Z,22.03
2023-04-10T12:02:09.367Z,23.03
2023-04-10T12:04:40.292Z,22.87
2023-04-10T12:07:09.793Z,27.43
2023-04-10T12:09:38.680Z,23.80
2023-04-10T12:12:09.397Z,21.70
2023-04-10T12:14:39.763Z,20.80
2023-04-10T12:17:10.553Z,21.77
2023-04-10T12:19:40.413Z,23.00
2023-04-10T12:22:09.215Z,22.37
2023-04-10T12:24:46.044Z,22.43
2023-04-10T12:27:19.665Z,23.13
2023-04-10T12:29:49.028Z,24.20
2023-04-10T12:32:18.026Z,24.97
2023-04-10T12:34:51.927Z,22.47
2023-04-10T12:37:21.401Z,22.00
2023-04-10T12:39:50.436Z,24.53
2023-04-10T12:42:22.927Z,25.73
2023-04-10T12:44:53.036Z,22.47
2023-04-10T12:47:21.900Z,23.73
2023-04-10T12:50:10.912Z,22.50
2023-04-10T12:52:41.961Z,22.27
2023-04-10T12:55:12.696Z,21.87
2023-04-10T12:57:43.700Z,23.13
2023-04-10T13:00:14.504Z,26.53
2023-04-10T13:02:43.486Z,20.93
2023-04-10T13:05:12.872Z,26.80
2023-04-10T13:07:42.164Z,21.33
2023-04-10T13:10:11.468Z,20.63
2023-04-10T13:12:42.115Z,20.53
2023-04-10T13:15:12.297Z,27.97
2023-04-10T13:17:41.894Z,22.00
2023-04-10T13:20:11.920Z,22.50
2023-04-10T13:22:40.915Z,19.47
2023-04-10T13:25:10.273Z,19.93
2023-04-10T13:27:38.893Z,19.83
2023-04-10T13:30:08.968Z,22.37
2023-04-10T13:32:39.105Z,19.93
2023-04-10T13:35:09.090Z,19.23
2023-04-10T13:37:37.826Z,18.77
2023-04-10T13:40:07.732Z,19.27
2023-04-10T13:42:39.275Z,21.20
2023-04-10T13:45:10.143Z,18.53
2023-04-10T13:47:40.443Z,19.20
2023-04-10T13:50:10.393Z,20.50
2023-04-10T13:52:39.178Z,18.70
2023-04-10T13:55:09.206Z,19.63
2023-04-10T13:57:37.923Z,18.20
2023-04-10T14:00:08.798Z,19.50
2023-04-10T14:02:39.131Z,18.27
2023-04-10T14:05:08.827Z,19.07
2023-04-10T14:07:37.787Z,18.03
2023-04-10T14:10:07.836Z,18.93
2023-04-10T14:12:37.775Z,18.40
2023-04-10T14:15:07.906Z,17.70
2023-04-10T14:17:36.715Z,16.43
2023-04-10T14:20:11.365Z,16.73
2023-04-10T14:22:40.217Z,18.73
2023-04-10T14:25:13.456Z,17.77
2023-04-10T14:27:43.294Z,19.87
2023-04-10T14:30:12.567Z,17.90
2023-04-10T14:32:41.520Z,17.30
2023-04-10T14:35:12.105Z,17.33
2023-04-10T14:37:40.703Z,18.43
2023-04-10T14:40:10.610Z,20.37
2023-04-10T14:42:39.387Z,18.50
2023-04-10T14:45:09.092Z,17.20
2023-04-10T14:47:37.888Z,17.97
2023-04-10T14:50:07.896Z,20.43
2023-04-10T14:52:38.021Z,23.73
2023-04-10T14:55:07.254Z,18.03
2023-04-10T14:57:36.448Z,16.40
2023-04-10T15:00:06.504Z,17.67
2023-04-10T15:02:35.287Z,17.57
2023-04-10T15:05:04.030Z,23.70
2023-04-10T15:07:32.656Z,19.07
2023-04-10T15:10:02.632Z,18.43
2023-04-10T15:12:31.377Z,26.00
2023-04-10T15:15:00.050Z,19.07
2023-04-10T15:17:29.849Z,18.57
2023-04-10T15:19:58.697Z,18.33
2023-04-10T15:22:27.384Z,25.90
2023-04-10T15:24:55.964Z,21.20
2023-04-10T15:27:26.012Z,27.70
2023-04-10T15:29:54.994Z,18.73
2023-04-10T15:32:23.716Z,26.23
2023-04-10T15:34:52.433Z,18.57
2023-04-10T15:37:21.258Z,27.20
2023-04-10T15:39:49.857Z,16.70
2023-04-10T15:42:18.573Z,17.97
2023-04-10T15:44:49.248Z,17.40
2023-04-10T15:47:17.988Z,27.93
2023-04-10T15:49:46.844Z,23.67
2023-04-10T15:52:15.512Z,21.40
2023-04-10T15:54:45.244Z,18.03
2023-04-10T15:57:13.860Z,17.90
2023-04-10T15:59:48.148Z,18.30
2023-04-10T16:02:21.113Z,22.70
2023-04-10T16:04:52.498Z,17.50
2023-04-10T16:07:27.317Z,27.40
2023-04-10T16:09:57.204Z,16.97
2023-04-10T16:12:26.138Z,19.67
2023-04-10T16:14:57.777Z,18.60
2023-04-10T16:17:36.544Z,20.13
2023-04-10T16:20:07.650Z,15.00
2023-04-10T16:22:37.162Z,15.83
2023-04-10T16:25:06.632Z,15.63
2023-04-10T16:27:35.493Z,15.03
2023-04-10T16:30:07.579Z,17.10
2023-04-10T16:32:38.709Z,14.90
2023-04-10T16:35:09.055Z,16.67
2023-04-10T16:37:38.672Z,15.53
2023-04-10T16:40:11.379Z,15.00
2023-04-10T16:42:46.026Z,15.40
2023-04-10T16:45:17.813Z,30.10
2023-04-10T16:47:48.332Z,20.43
2023-04-10T16:50:17.219Z,25.17
2023-04-10T16:52:46.025Z,20.70
2023-04-10T16:55:24.400Z,19.90
2023-04-10T16:57:53.245Z,16.43
2023-04-10T17:00:23.416Z,25.73
2023-04-10T17:02:56.166Z,20.03
2023-04-10T17:05:24.919Z,27.97
2023-04-10T17:07:53.633Z,15.13
2023-04-10T17:10:22.283Z,32.20
2023-04-10T17:12:51.274Z,16.80
2023-04-10T17:15:22.588Z,25.50
2023-04-10T17:17:55.853Z,18.57
2023-04-10T17:20:24.795Z,28.93
2023-04-10T17:22:53.370Z,18.23
2023-04-10T17:25:22.157Z,22.97
2023-04-10T17:27:50.967Z,24.37
2023-04-10T17:30:19.851Z,17.43
2023-04-10T17:32:49.435Z,19.13
2023-04-10T17:35:21.624Z,20.73
2023-04-10T17:37:52.402Z,21.60
2023-04-10T17:40:21.822Z,19.73
2023-04-10T17:42:50.479Z,31.00
2023-04-10T17:45:19.388Z,33.40
2023-04-10T17:47:48.049Z,23.63
2023-04-10T17:50:16.842Z,26.33
2023-04-10T17:52:46.886Z,21.50
2023-04-10T17:55:20.400Z,20.80
2023-04-10T17:57:50.163Z,24.33
2023-04-10T18:00:20.789Z,25.80
2023-04-10T18:02:49.618Z,22.20
2023-04-10T18:05:18.329Z,23.00
2023-04-10T18:07:48.297Z,24.80
2023-04-10T18:10:16.999Z,29.17
2023-04-10T18:12:45.795Z,19.60
2023-04-10T18:15:15.362Z,21.47
2023-04-10T18:17:44.050Z,21.40
2023-04-10T18:20:12.790Z,29.63
2023-04-10T18:22:41.507Z,24.00
2023-04-10T18:25:11.746Z,19.03
2023-04-10T18:27:51.441Z,18.93
2023-04-10T18:30:24.551Z,24.63
2023-04-10T18:32:53.319Z,23.43
2023-04-10T18:35:22.199Z,31.43
2023-04-10T18:37:51.029Z,32.00
2023-04-10T18:40:22.325Z,22.27
2023-04-10T18:42:51.010Z,19.90
2023-04-10T18:45:20.447Z,23.57
2023-04-10T18:47:49.227Z,16.47
2023-04-10T18:50:18.175Z,27.13
2023-04-10T18:52:46.921Z,22.53
2023-04-10T18:55:16.000Z,20.43
2023-04-10T18:57:46.027Z,14.53
2023-04-10T19:00:15.554Z,18.47
2023-04-10T19:02:44.694Z,16.87
2023-04-10T19:05:14.387Z,14.03
2023-04-10T19:07:49.844Z,13.17
2023-04-10T19:10:21.823Z,27.47
2023-04-10T19:12:53.255Z,15.40
2023-04-10T19:15:21.853Z,26.37
2023-04-10T19:17:53.695Z,18.37
2023-04-10T19:20:50.674Z,24.40
2023-04-10T19:23:11.917Z,16.67
2023-04-10T19:25:40.956Z,22.13
2023-04-10T19:28:11.121Z,18.97
2023-04-10T19:30:39.823Z,14.17
2023-04-10T19:33:08.851Z,20.00
2023-04-10T19:35:39.359Z,26.63
2023-04-10T19:38:13.399Z,14.00
2023-04-10T19:40:42.135Z,18.13
2023-04-10T19:43:12.422Z,13.63
2023-04-10T19:45:41.589Z,12.37
2023-04-10T19:48:12.031Z,21.13
2023-04-10T19:50:40.807Z,13.67
2023-04-10T19:53:12.775Z,14.93
2023-04-10T19:55:41.762Z,16.67
2023-04-10T19:58:30.025Z,14.60
2023-04-10T20:01:03.709Z,19.90
2023-04-10T20:03:32.992Z,20.30
2023-04-10T20:06:02.917Z,15.67
2023-04-10T20:08:31.709Z,23.97
2023-04-10T20:11:00.408Z,16.20
2023-04-10T20:13:30.861Z,25.17
2023-04-10T20:15:59.733Z,15.77
2023-04-10T20:18:28.525Z,29.57
2023-04-10T20:20:57.316Z,17.77
2023-04-10T20:23:25.963Z,30.57
2023-04-10T20:25:54.636Z,22.17
2023-04-10T20:28:23.345Z,23.90
2023-04-10T20:30:53.431Z,22.73
2023-04-10T20:33:22.099Z,20.97
2023-04-10T20:35:50.840Z,25.30
2023-04-10T20:38:19.850Z,12.57
2023-04-10T20:40:48.563Z,20.73
2023-04-10T20:43:18.759Z,19.97
2023-04-10T20:45:47.486Z,18.00
2023-04-10T20:48:17.554Z,19.57
2023-04-10T20:50:49.441Z,17.10
2023-04-10T20:53:18.307Z,17.57
2023-04-10T20:55:47.035Z,16.73
2023-04-10T20:58:15.792Z,19.10
2023-04-10T21:00:44.491Z,19.37
2023-04-10T21:03:13.447Z,21.60
2023-04-10T21:05:43.745Z,14.53
2023-04-10T21:08:13.819Z,15.50
2023-04-10T21:10:44.961Z,12.80
2023-04-10T21:13:14.723Z,28.37
2023-04-10T21:15:43.651Z,14.50
2023-04-10T21:18:12.482Z,15.73
2023-04-10T21:20:41.158Z,13.97
2023-04-10T21:23:11.217Z,31.17
2023-04-10T21:25:40.308Z,17.37
2023-04-10T21:28:08.955Z,12.17
2023-04-10T21:30:38.048Z,24.97
2023-04-10T21:33:07.048Z,23.50
2023-04-10T21:35:35.797Z,19.40
2023-04-10T21:38:04.470Z,19.53
2023-04-10T21:40:34.925Z,31.07
2023-04-10T21:43:04.179Z,33.73
2023-04-10T21:45:34.469Z,41.33
2023-04-10T21:48:03.339Z,20.30
2023-04-10T21:50:34.953Z,18.37
2023-04-10T21:53:03.698Z,21.87
2023-04-10T21:55:32.344Z,28.97
2023-04-10T21:58:05.908Z,18.60
2023-04-10T22:00:34.796Z,15.53
2023-04-10T22:03:03.729Z,24.53
2023-04-10T22:05:32.787Z,23.03
2023-04-10T22:08:01.467Z,13.87
2023-04-10T22:10:33.307Z,32.23
2023-04-10T22:13:03.332Z,16.43
2023-04-10T22:15:32.128Z,23.43
2023-04-10T22:18:00.989Z,22.30
2023-04-10T22:20:29.644Z,33.13
2023-04-10T22:22:58.321Z,18.80
2023-04-10T22:25:27.073Z,19.83
2023-04-10T22:27:55.790Z,24.10
2023-04-10T22:30:27.081Z,19.47
2023-04-10T22:32:57.272Z,19.80
2023-04-10T22:35:28.661Z,22.30
2023-04-10T22:37:57.871Z,20.00
2023-04-10T22:40:26.776Z,20.13
2023-04-10T22:42:55.543Z,17.70
2023-04-10T22:45:28.245Z,28.60
2023-04-10T22:48:03.474Z,18.27
2023-04-10T22:50:32.680Z,29.97
2023-04-10T22:53:01.320Z,21.87
2023-04-10T22:55:30.054Z,40.73
2023-04-10T22:57:58.798Z,14.83
2023-04-10T23:00:29.946Z,36.07
2023-04-10T23:02:58.640Z,23.70
2023-04-10T23:05:27.987Z,27.83
2023-04-10T23:07:56.835Z,25.20
2023-04-10T23:10:25.537Z,20.03
2023-04-10T23:12:54.259Z,19.63
2023-04-10T23:15:22.971Z,22.30
2023-04-10T23:17:53.046Z,22.80
2023-04-10T23:20:21.863Z,13.33
2023-04-10T23:22:50.571Z,20.50
2023-04-10T23:25:19.272Z,16.27
2023-04-10T23:27:50.357Z,19.53
2023-04-10T23:30:18.977Z,29.20
2023-04-10T23:32:47.631Z,23.00
2023-04-10T23:35:17.929Z,21.00
2023-04-10T23:37:46.774Z,23.47
2023-04-10T23:40:15.602Z,10.20
2023-04-10T23:42:46.161Z,20.10
2023-04-10T23:45:18.789Z,16.63
2023-04-10T23:47:50.240Z,15.33
2023-04-10T23:50:22.983Z,18.03
2023-04-10T23:52:52.261Z,19.67
2023-04-10T23:55:21.670Z,16.63
2023-04-10T23:57:53.506Z,17.33
